Time;durP1;ratioP1;P1;durP2;ratioP2;P2;SDS_P1;SDS_P2;PMS_P1;PMS_P2;Temp;Humidity;BMP_temperature;BMP_pressure;BME280_temperature;BME280_humidity;BME280_pressure;Samples;Min_cycle;Max_cycle;Signal;HPM_P1;HPM_P2
2022/11/05 00:09:31;;;;;;;36.55;30.02;;;;;;;9.95;100.00;98658.69;4897354;29;20679;-92
2022/11/05 00:17:55;;;;;;;37.60;29.80;;;;;;;9.92;100.00;98684.88;4803413;29;20106;-91
2022/11/05 00:20:21;;;;;;;35.65;29.20;;;;;;;9.89;100.00;98685.88;4787320;29;20455;-91
2022/11/05 00:25:38;;;;;;;38.22;29.70;;;;;;;9.83;100.00;98701.84;4749204;30;20039;-92
2022/11/05 00:28:03;;;;;;;38.67;28.85;;;;;;;9.82;100.00;98700.19;4749150;30;20052;-92
2022/11/05 00:30:29;;;;;;;35.30;27.95;;;;;;;9.80;100.00;98702.03;4734792;30;20089;-93
2022/11/05 00:33:00;;;;;;;36.88;28.52;;;;;;;9.82;100.00;98709.72;4749411;30;20110;-90
2022/11/05 00:35:25;;;;;;;35.72;28.02;;;;;;;9.84;100.00;98715.69;4749351;30;20044;-92
2022/11/05 00:37:52;;;;;;;35.05;27.88;;;;;;;9.73;100.00;98711.09;4735161;30;20061;-92
2022/11/05 00:40:18;;;;;;;37.38;28.55;;;;;;;9.80;100.00;98715.03;4749159;30;20060;-92
2022/11/05 00:45:30;;;;;;;34.63;26.63;;;;;;;9.76;100.00;98708.31;4749801;30;20718;-93
2022/11/05 00:50:39;;;;;;;32.47;26.65;;;;;;;9.72;100.00;98697.25;4749808;30;20093;-92
2022/11/05 00:53:06;;;;;;;30.27;24.15;;;;;;;9.75;100.00;98720.50;4799091;29;20047;-92
2022/11/05 00:55:43;;;;;;;33.70;25.30;;;;;;;9.71;100.00;98721.59;4806474;29;20042;-92
2022/11/05 00:58:11;;;;;;;33.30;25.58;;;;;;;9.73;100.00;98732.75;4791197;29;20118;-92
2022/11/05 01:00:39;;;;;;;30.50;24.73;;;;;;;9.71;100.00;98731.16;4791389;29;20578;-92
2022/11/05 01:03:11;;;;;;;27.50;23.75;;;;;;;9.69;100.00;98736.47;4862386;29;20085;-93
2022/11/05 01:05:45;;;;;;;30.65;24.77;;;;;;;9.71;100.00;98749.38;4864379;29;20444;-91
2022/11/05 01:08:12;;;;;;;29.35;22.95;;;;;;;9.66;100.00;98748.81;4842546;29;20088;-92
2022/11/05 01:10:46;;;;;;;28.60;23.08;;;;;;;9.67;100.00;98753.91;4843007;29;20038;-91
2022/11/05 01:13:14;;;;;;;28.40;21.80;;;;;;;9.62;100.00;98748.13;4827175;29;20038;-91
2022/11/05 01:15:40;;;;;;;22.60;19.98;;;;;;;9.66;100.00;98760.03;4827151;29;20475;-92
2022/11/05 01:18:05;;;;;;;25.10;20.23;;;;;;;9.63;100.00;98762.81;4826925;29;20045;-91
2022/11/05 01:20:31;;;;;;;21.40;17.85;;;;;;;9.66;100.00;98765.25;4826973;29;20057;-91
2022/11/05 01:22:57;;;;;;;20.45;17.25;;;;;;;9.65;100.00;98765.31;4826752;29;20178;-92
2022/11/05 01:25:23;;;;;;;20.67;16.75;;;;;;;9.66;100.00;98767.84;4826750;29;20045;-92
2022/11/05 01:27:48;;;;;;;19.55;15.57;;;;;;;9.71;100.00;98775.38;4826980;29;20045;-91
2022/11/05 01:30:14;;;;;;;17.90;14.80;;;;;;;9.70;100.00;98779.75;4826566;29;20041;-92
2022/11/05 01:32:39;;;;;;;17.60;14.05;;;;;;;9.67;100.00;98761.69;4826787;29;20030;-91
2022/11/05 01:35:07;;;;;;;13.73;12.32;;;;;;;9.72;100.00;98779.63;4805580;29;20055;-92
2022/11/05 01:37:34;;;;;;;10.65;9.38;;;;;;;9.68;100.00;98780.75;4790621;29;20039;-91
2022/11/05 01:40:00;;;;;;;10.60;9.45;;;;;;;9.68;100.00;98784.16;4839276;29;20389;-91
2022/11/05 01:42:27;;;;;;;9.88;8.80;;;;;;;9.70;100.00;98790.13;4844973;29;20029;-91
2022/11/05 01:45:02;;;;;;;8.88;7.80;;;;;;;9.71;100.00;98796.16;4845052;29;20166;-92
2022/11/05 01:47:38;;;;;;;7.57;6.75;;;;;;;9.73;100.00;98794.31;4844724;29;20029;-91
2022/11/05 01:50:22;;;;;;;5.97;5.38;;;;;;;9.73;100.00;98802.97;4844797;29;20037;-91
2022/11/05 01:52:50;;;;;;;4.80;3.95;;;;;;;9.70;100.00;98797.94;4844955;29;20036;-92
2022/11/05 01:55:21;;;;;;;6.18;3.90;;;;;;;9.63;100.00;98785.38;4844776;29;20138;-91
2022/11/05 01:57:47;;;;;;;;;;;;;;;9.70;100.00;98803.13;4845430;29;20046;-90
2022/11/05 02:00:14;;;;;;;3.22;2.70;;;;;;;9.66;100.00;98801.63;4844408;29;19908;-91
2022/11/05 02:02:40;;;;;;;2.25;2.05;;;;;;;9.61;100.00;98803.66;4844577;29;20708;-92
2022/11/05 02:05:06;;;;;;;1.90;1.77;;;;;;;9.58;100.00;98796.03;4863576;29;20137;-91
2022/11/05 02:07:32;;;;;;;1.73;1.63;;;;;;;9.56;100.00;98791.81;4882537;29;20517;-91
2022/11/05 02:10:12;;;;;;;3.35;1.88;;;;;;;9.49;100.00;98796.53;4882427;29;20470;-91
2022/11/05 02:12:40;;;;;;;1.83;1.73;;;;;;;9.41;100.00;98789.16;4882730;29;20031;-91
2022/11/05 02:15:10;;;;;;;1.80;1.70;;;;;;;9.43;100.00;98804.66;4882903;29;20024;-91
2022/11/05 02:18:01;;;;;;;2.10;1.90;;;;;;;9.40;100.00;98803.09;4882712;29;20421;-92
2022/11/05 02:20:46;;;;;;;2.55;2.03;;;;;;;9.37;100.00;98803.25;4882213;29;20139;-92
2022/11/05 02:23:36;;;;;;;2.45;2.05;;;;;;;9.35;100.00;98810.28;4897982;29;20102;-91
2022/11/05 02:26:17;;;;;;;2.78;2.15;;;;;;;9.28;100.00;98800.34;4898413;29;20035;-91
2022/11/05 02:29:13;;;;;;;2.40;2.20;;;;;;;9.34;100.00;98818.19;4897923;29;20032;-91
2022/11/05 02:31:46;;;;;;;2.20;2.10;;;;;;;9.26;100.00;98805.59;4898154;29;20080;-91
2022/11/05 02:34:21;;;;;;;3.33;2.38;;;;;;;9.31;100.00;98826.97;4898088;29;20076;-92
2022/11/05 02:37:07;;;;;;;3.80;2.55;;;;;;;9.28;100.00;98837.53;4897995;29;20032;-91
2022/11/05 02:39:55;;;;;;;2.75;2.50;;;;;;;9.26;100.00;98836.78;4897923;29;20076;-92
2022/11/05 02:43:05;;;;;;;3.03;2.53;;;;;;;9.25;100.00;98848.09;4825893;29;20519;-92
2022/11/05 02:45:49;;;;;;;2.70;2.40;;;;;;;9.23;100.00;98850.78;4807703;29;20042;-92
2022/11/05 02:48:36;;;;;;;2.47;2.28;;;;;;;9.24;100.00;98857.66;4807270;29;20129;-92
2022/11/05 02:51:10;;;;;;;2.97;2.00;;;;;;;9.25;100.00;98854.13;4807499;29;20027;-91
2022/11/05 02:54:08;;;;;;;2.40;2.20;;;;;;;9.22;100.00;98863.84;4786365;30;20040;-92
2022/11/05 02:56:40;;;;;;;3.08;2.20;;;;;;;9.23;100.00;98871.56;4786189;29;20039;-91
2022/11/05 02:59:06;;;;;;;2.47;2.20;;;;;;;9.25;100.00;98874.09;4786257;30;20059;-91
2022/11/05 03:01:34;;;;;;;2.65;2.20;;;;;;;9.25;100.00;98874.91;4771158;30;20083;-92
2022/11/05 03:04:02;;;;;;;2.08;1.92;;;;;;;9.19;100.00;98872.66;4786193;29;20043;-92
2022/11/05 03:06:46;;;;;;;4.50;3.05;;;;;;;9.22;100.00;98879.44;4786111;30;20050;-91
2022/11/05 03:09:26;;;;;;;3.17;2.42;;;;;;;9.27;100.00;98893.03;4785990;29;20063;-91
2022/11/05 03:12:13;;;;;;;2.08;1.98;;;;;;;9.29;100.00;98898.16;4786040;29;20031;-91
2022/11/05 03:14:49;;;;;;;2.85;2.28;;;;;;;9.27;100.00;98913.84;4785866;29;20043;-91
2022/11/05 03:17:53;;;;;;;2.33;2.13;;;;;;;9.24;100.00;98913.97;4770920;30;20518;-92
2022/11/05 03:20:34;;;;;;;2.38;2.05;;;;;;;9.26;100.00;98927.72;4820459;29;20054;-90
2022/11/05 03:23:13;;;;;;;2.25;2.05;;;;;;;9.24;100.00;98935.59;4825106;29;20030;-90
2022/11/05 03:25:47;;;;;;;1.73;1.63;;;;;;;9.22;100.00;98932.22;4824953;29;20140;-90
2022/11/05 03:28:14;;;;;;;1.70;1.60;;;;;;;9.22;100.00;98940.03;4839906;29;20465;-91
2022/11/05 03:30:41;;;;;;;1.90;1.80;;;;;;;9.21;100.00;98943.56;4824919;29;20456;-91
2022/11/05 03:33:12;;;;;;;1.77;1.60;;;;;;;9.22;100.00;98950.41;4890520;29;20059;-91
2022/11/05 03:35:43;;;;;;;2.08;1.65;;;;;;;9.22;100.00;98942.63;4896494;29;20119;-91
2022/11/05 03:38:29;;;;;;;1.88;1.77;;;;;;;9.19;100.00;98953.19;4896919;29;20484;-91
2022/11/05 03:41:00;;;;;;;1.80;1.70;;;;;;;9.21;100.00;98964.34;4896743;29;20039;-91
2022/11/05 03:43:31;;;;;;;1.60;1.50;;;;;;;9.20;100.00;98956.63;4896554;29;20130;-91
2022/11/05 03:46:02;;;;;;;2.05;1.85;;;;;;;9.20;100.00;98974.81;4896526;29;20039;-91
2022/11/05 03:48:29;;;;;;;;;;;;;;;9.20;100.00;98983.47;4896929;29;20065;-91
2022/11/05 03:51:24;;;;;;;2.17;1.80;;;;;;;9.09;100.00;98977.13;4897700;29;19915;-91
2022/11/05 03:53:54;;;;;;;1.92;1.83;;;;;;;9.16;100.00;98997.53;4824753;29;20038;-91
2022/11/05 03:56:27;;;;;;;2.00;1.90;;;;;;;8.99;100.00;98974.16;4824253;29;20498;-92
2022/11/05 03:58:54;;;;;;;2.00;1.88;;;;;;;9.15;100.00;99002.81;4824637;29;20044;-92
2022/11/05 04:01:20;;;;;;;1.90;1.80;;;;;;;9.14;100.00;99014.09;4824146;29;20508;-90
2022/11/05 04:03:45;;;;;;;2.03;1.85;;;;;;;9.10;100.00;99018.63;4824502;29;20033;-91
2022/11/05 04:14:25;;;;;;;2.78;1.80;;;;;;;9.15;100.00;99033.97;4839537;29;20048;-91
2022/11/05 04:17:05;;;;;;;1.80;1.70;;;;;;;9.15;100.00;99049.56;4824434;29;20057;-91
2022/11/05 04:25:03;;;;;;;2.13;1.92;;;;;;;9.10;100.00;99046.34;4839644;29;20065;-90
2022/11/05 04:27:29;;;;;;;2.05;1.95;;;;;;;9.10;100.00;99057.59;4802488;29;20500;-90
2022/11/05 04:32:38;;;;;;;1.92;1.83;;;;;;;9.11;100.00;99061.03;4876059;29;20092;-90
2022/11/05 04:35:04;;;;;;;1.90;1.80;;;;;;;9.10;100.00;99068.00;4860453;29;20032;-90
2022/11/05 04:37:29;;;;;;;2.30;2.10;;;;;;;9.02;100.00;99051.06;4860174;29;20036;-90
2022/11/05 04:39:54;;;;;;;2.30;2.10;;;;;;;9.07;100.00;99078.53;4860364;29;20032;-90
2022/11/05 04:42:20;;;;;;;2.40;2.25;;;;;;;9.05;100.00;99080.34;4860314;29;20041;-91
2022/11/05 04:44:45;;;;;;;2.15;1.95;;;;;;;9.00;100.00;99075.38;4860400;29;20073;-91
2022/11/05 04:47:11;;;;;;;2.33;2.13;;;;;;;9.03;100.00;99079.59;4860346;29;20033;-91
2022/11/05 04:49:36;;;;;;;1.95;1.77;;;;;;;9.02;100.00;99070.13;4859997;29;20029;-91
2022/11/05 04:52:01;;;;;;;3.10;2.17;;;;;;;8.98;100.00;99068.59;4860460;29;20058;-91
2022/11/05 04:54:27;;;;;;;2.08;1.98;;;;;;;9.03;100.00;99079.59;4860149;29;20033;-90
2022/11/05 04:56:52;;;;;;;2.15;1.95;;;;;;;8.99;100.00;99075.47;4860275;29;20065;-90
2022/11/05 04:59:18;;;;;;;6.57;2.50;;;;;;;9.04;100.00;99085.63;4889443;29;20092;-90
2022/11/05 05:01:43;;;;;;;2.97;2.53;;;;;;;9.03;100.00;99076.16;4895451;29;20031;-90
2022/11/05 05:04:08;;;;;;;3.05;2.70;;;;;;;9.01;100.00;99081.41;4896064;29;20048;-91
2022/11/05 05:06:34;;;;;;;3.25;2.90;;;;;;;8.99;100.00;99085.84;4895358;29;20041;-90
2022/11/05 05:08:59;;;;;;;2.88;2.67;;;;;;;8.90;100.00;99074.16;4895318;29;20521;-89
2022/11/05 05:11:25;;;;;;;3.33;2.60;;;;;;;8.94;100.00;99087.84;4895085;29;20024;-89
2022/11/05 05:13:50;;;;;;;3.22;2.70;;;;;;;8.97;100.00;99091.13;4895639;29;20033;-90
2022/11/05 05:16:21;;;;;;;3.30;3.00;;;;;;;8.95;100.00;99100.75;4895722;29;20084;-91
2022/11/05 05:18:48;;;;;;;4.85;2.70;;;;;;;8.96;100.00;99112.81;4895685;29;20096;-91
2022/11/05 05:23:59;;;;;;;2.95;2.72;;;;;;;8.93;100.00;99128.56;4896961;29;20559;-91
2022/11/05 05:26:25;;;;;;;3.05;2.75;;;;;;;8.92;100.00;99119.06;4895548;29;20033;-91
2022/11/05 05:28:52;;;;;;;4.15;3.15;;;;;;;8.93;100.00;99119.91;4895514;29;20024;-92
2022/11/05 05:31:18;;;;;;;3.10;2.80;;;;;;;8.92;100.00;99121.66;4895779;29;20060;-91
2022/11/05 05:33:43;;;;;;;3.40;3.00;;;;;;;8.94;100.00;99111.22;4895389;29;20075;-91
2022/11/05 05:36:09;;;;;;;3.50;3.20;;;;;;;8.94;100.00;99113.81;4895689;29;20028;-91
2022/11/05 05:38:34;;;;;;;4.70;2.90;;;;;;;8.93;100.00;99118.16;4896359;29;20392;-91
2022/11/05 05:41:00;;;;;;;3.50;3.20;;;;;;;8.92;100.00;99123.41;4900838;29;20032;-92
2022/11/05 05:43:29;;;;;;;4.18;3.30;;;;;;;8.92;100.00;99126.00;4899361;29;20036;-92
2022/11/05 05:45:56;;;;;;;3.75;3.45;;;;;;;8.93;100.00;99117.31;4899261;29;20035;-91
2022/11/05 05:48:22;;;;;;;4.35;3.30;;;;;;;8.92;100.00;99118.22;4898605;29;20037;-91
2022/11/05 05:50:47;;;;;;;3.90;3.53;;;;;;;8.93;100.00;99128.56;4898531;29;20025;-89
2022/11/05 05:53:12;;;;;;;4.93;4.38;;;;;;;8.92;100.00;99126.84;4898899;29;20413;-91
2022/11/05 05:55:38;;;;;;;5.78;5.28;;;;;;;8.90;100.00;99126.09;4898521;29;20025;-91
2022/11/05 05:58:03;;;;;;;5.80;5.20;;;;;;;8.87;100.00;99121.03;4898562;29;20463;-91
2022/11/05 06:00:28;;;;;;;4.57;3.90;;;;;;;8.88;100.00;99140.91;4898216;29;20024;-91
2022/11/05 06:02:55;;;;;;;6.10;3.65;;;;;;;8.87;100.00;99147.00;4897139;29;20091;-91
2022/11/05 06:05:20;;;;;;;3.75;3.38;;;;;;;8.84;100.00;99144.56;4881446;29;20154;-90
2022/11/05 06:07:46;;;;;;;4.10;3.70;;;;;;;8.86;100.00;99158.31;4881017;29;20037;-90
2022/11/05 06:10:11;;;;;;;4.65;4.18;;;;;;;8.88;100.00;99161.69;4881284;29;20542;-91
2022/11/05 06:12:36;;;;;;;5.32;4.30;;;;;;;8.89;100.00;99171.19;4881133;29;20040;-92
2022/11/05 06:15:03;;;;;;;5.00;4.50;;;;;;;8.90;100.00;99174.59;4881225;29;20125;-90
2022/11/05 06:17:28;;;;;;;4.18;3.60;;;;;;;8.90;100.00;99180.63;4896660;29;20052;-90
2022/11/05 06:19:53;;;;;;;5.53;3.92;;;;;;;8.91;100.00;99192.69;4880701;29;20462;-91
2022/11/05 06:22:19;;;;;;;4.03;3.72;;;;;;;8.88;100.00;99187.66;4896683;29;20040;-90
2022/11/05 06:24:44;;;;;;;4.63;3.72;;;;;;;8.92;100.00;99194.38;4880609;29;20128;-91
2022/11/05 06:27:09;;;;;;;5.43;4.25;;;;;;;8.92;100.00;99199.56;4896761;29;20104;-90
2022/11/05 06:29:35;;;;;;;6.10;5.30;;;;;;;8.88;100.00;99199.78;4880442;29;20036;-91
2022/11/05 06:32:00;;;;;;;6.85;5.13;;;;;;;8.94;100.00;99215.09;4880906;29;20080;-91
2022/11/05 06:34:26;;;;;;;6.47;5.47;;;;;;;8.94;100.00;99222.91;4891727;29;20045;-91
2022/11/05 06:36:51;;;;;;;5.95;5.22;;;;;;;8.94;100.00;99226.34;4897638;29;20384;-90
2022/11/05 06:39:16;;;;;;;4.45;4.05;;;;;;;8.90;100.00;99216.16;4897404;29;20028;-91
2022/11/05 06:41:42;;;;;;;6.32;4.47;;;;;;;8.96;100.00;99234.03;4897307;29;20036;-91
2022/11/05 06:44:08;;;;;;;4.53;4.10;;;;;;;8.95;100.00;99241.00;4897553;29;20029;-90
2022/11/05 06:46:33;;;;;;;4.75;3.92;;;;;;;8.96;100.00;99242.66;4897105;29;20036;-90
2022/11/05 06:48:58;;;;;;;3.97;3.67;;;;;;;8.98;100.00;99256.44;4897192;29;20032;-91
2022/11/05 06:51:24;;;;;;;3.90;3.60;;;;;;;9.01;100.00;99263.22;4896208;29;20028;-91
2022/11/05 06:53:49;;;;;;;4.03;3.72;;;;;;;9.00;100.00;99262.41;4897269;29;20036;-92
2022/11/05 06:56:15;;;;;;;4.05;3.65;;;;;;;9.05;100.00;99263.94;4897420;29;20453;-90
2022/11/05 06:58:40;;;;;;;4.00;3.60;;;;;;;9.04;100.00;99262.25;4897159;29;20025;-90
2022/11/05 07:01:08;;;;;;;4.03;3.63;;;;;;;9.03;100.00;99270.97;4897174;29;20096;-91
2022/11/05 07:03:37;;;;;;;5.13;3.95;;;;;;;9.01;100.00;99265.84;4897112;29;20135;-91
2022/11/05 07:06:05;;;;;;;5.47;4.15;;;;;;;9.03;100.00;99268.38;4896891;29;20036;-92
2022/11/05 07:08:32;;;;;;;7.30;4.60;;;;;;;8.97;100.00;99257.38;4896812;29;20112;-91
2022/11/05 07:10:58;;;;;;;6.68;4.95;;;;;;;9.00;100.00;99264.16;4876902;29;20084;-91
2022/11/05 07:13:25;;;;;;;5.40;4.65;;;;;;;8.99;100.00;99267.69;4858327;29;20073;-91
2022/11/05 07:15:50;;;;;;;4.80;4.30;;;;;;;9.01;100.00;99278.81;4843615;29;20409;-91
2022/11/05 07:18:16;;;;;;;4.13;3.72;;;;;;;9.05;100.00;99293.34;4858482;29;20050;-91
2022/11/05 07:20:42;;;;;;;5.05;3.97;;;;;;;9.07;100.00;99288.94;4858031;29;20509;-92
2022/11/05 07:23:12;;;;;;;4.30;3.90;;;;;;;9.11;100.00;99300.88;4842835;29;20069;-92
2022/11/05 07:25:39;;;;;;;4.53;3.55;;;;;;;9.13;100.00;99304.25;4842851;29;20498;-91
2022/11/05 07:28:05;;;;;;;4.45;2.97;;;;;;;9.17;100.00;99303.19;4842772;29;20042;-90
2022/11/05 07:30:31;;;;;;;6.07;4.03;;;;;;;9.21;100.00;99307.31;4842451;29;20093;-91
2022/11/05 07:32:57;;;;;;;3.95;3.55;;;;;;;9.22;100.00;99298.59;4842681;29;20455;-91
2022/11/05 07:35:23;;;;;;;5.50;4.10;;;;;;;9.26;100.00;99307.09;4842816;29;20029;-91
2022/11/05 07:37:52;;;;;;;4.93;3.75;;;;;;;9.24;100.00;99304.59;4842449;29;20433;-93
2022/11/05 07:40:19;;;;;;;3.90;3.50;;;;;;;9.29;100.00;99312.16;4842621;29;20037;-92
2022/11/05 07:42:47;;;;;;;3.78;3.38;;;;;;;9.25;100.00;99313.22;4857616;29;20147;-92
2022/11/05 07:45:13;;;;;;;3.95;3.55;;;;;;;9.34;100.00;99328.38;4892927;29;20048;-92
2022/11/05 07:47:46;;;;;;;5.00;3.88;;;;;;;9.36;100.00;99333.53;4895944;29;20047;-92
2022/11/05 07:50:12;;;;;;;5.10;3.40;;;;;;;9.44;100.00;99355.66;4896178;29;20037;-92
2022/11/05 07:52:38;;;;;;;3.30;3.00;;;;;;;9.51;100.00;99358.78;4896048;29;20090;-92
2022/11/05 07:55:04;;;;;;;4.32;3.42;;;;;;;9.52;100.00;99357.03;4896350;29;20177;-92
2022/11/05 07:57:30;;;;;;;4.65;3.17;;;;;;;9.56;100.00;99366.38;4896160;29;20035;-92
2022/11/05 07:59:55;;;;;;;5.28;3.80;;;;;;;9.56;100.00;99374.16;4896048;29;20115;-92
2022/11/05 08:02:21;;;;;;;5.15;3.72;;;;;;;9.60;100.00;99376.56;4895867;29;20087;-92
2022/11/05 08:04:47;;;;;;;4.75;3.80;;;;;;;9.66;100.00;99363.28;4895957;29;20024;-92
2022/11/05 08:07:12;;;;;;;9.27;4.57;;;;;;;9.68;100.00;99366.63;4895931;29;20032;-93
2022/11/05 08:09:38;;;;;;;6.78;4.40;;;;;;;9.71;100.00;99376.06;4895663;29;20069;-93
2022/11/05 08:12:04;;;;;;;4.65;4.15;;;;;;;9.64;100.00;99365.09;4895934;29;20067;-92
2022/11/05 08:14:29;;;;;;;3.88;3.47;;;;;;;9.70;100.00;99376.97;4895894;29;20120;-93
2022/11/05 08:16:56;;;;;;;4.40;3.95;;;;;;;9.67;100.00;99379.72;4895682;29;20024;-92
2022/11/05 08:19:21;;;;;;;5.50;4.07;;;;;;;9.71;100.00;99383.88;4896066;29;20488;-91
2022/11/05 08:21:47;;;;;;;5.72;4.43;;;;;;;9.69;100.00;99390.88;4895435;29;20061;-92
2022/11/05 08:24:12;;;;;;;6.75;4.35;;;;;;;9.71;100.00;99396.88;4895689;29;20035;-91
2022/11/05 08:26:38;;;;;;;6.18;4.60;;;;;;;9.72;100.00;99394.19;4895425;29;20025;-91
2022/11/05 08:29:03;;;;;;;6.35;4.50;;;;;;;9.78;100.00;99385.28;4895406;29;20116;-91
2022/11/05 08:31:29;;;;;;;6.25;4.15;;;;;;;9.84;100.00;99387.56;4895834;29;20032;-92
2022/11/05 08:33:55;;;;;;;6.38;4.35;;;;;;;9.92;100.00;99388.03;4893985;29;20040;-91
2022/11/05 08:36:21;;;;;;;9.55;4.38;;;;;;;9.98;100.00;99394.69;4894302;29;20044;-92
2022/11/05 08:38:46;;;;;;;6.55;5.03;;;;;;;10.02;100.00;99395.41;4878609;29;20127;-91
2022/11/05 08:41:11;;;;;;;8.85;4.65;;;;;;;10.06;100.00;99400.38;4878822;29;20131;-91
2022/11/05 08:43:37;;;;;;;6.60;4.60;;;;;;;10.04;100.00;99394.41;4878438;29;20038;-91
2022/11/05 08:46:02;;;;;;;6.55;4.80;;;;;;;10.10;100.00;99417.53;4878782;29;20086;-91
2022/11/05 08:48:28;;;;;;;6.40;3.80;;;;;;;10.10;100.00;99419.28;4878601;29;20040;-91
2022/11/05 08:50:53;;;;;;;5.47;3.30;;;;;;;10.14;100.00;99428.63;4878428;29;20052;-91
2022/11/05 08:53:19;;;;;;;4.82;3.47;;;;;;;10.12;100.00;99428.72;4878657;29;20037;-91
2022/11/05 08:55:46;;;;;;;5.80;3.63;;;;;;;10.11;100.00;99429.66;4893921;29;20044;-91
2022/11/05 08:58:15;;;;;;;5.05;3.00;;;;;;;10.17;100.00;99436.31;4878885;29;20052;-90
2022/11/05 09:00:42;;;;;;;6.60;3.70;;;;;;;10.18;100.00;99445.78;4878239;29;20041;-89
2022/11/05 09:03:09;;;;;;;5.95;3.10;;;;;;;10.17;100.00;99452.75;4878597;29;20043;-90
2022/11/05 09:05:37;;;;;;;5.53;3.35;;;;;;;10.21;100.00;99459.50;4890808;29;20037;-89
2022/11/05 09:08:09;;;;;;;6.30;3.60;;;;;;;10.19;100.00;99458.72;4895266;29;20068;-89
2022/11/05 09:10:34;;;;;;;5.20;2.90;;;;;;;10.22;100.00;99461.19;4895537;29;20039;-89
2022/11/05 09:13:00;;;;;;;8.00;3.72;;;;;;;10.17;100.00;99459.72;4895264;29;20029;-88
2022/11/05 09:15:26;;;;;;;9.90;3.83;;;;;;;10.18;100.00;99464.84;4900287;29;20412;-88
2022/11/05 09:17:51;;;;;;;4.15;3.08;;;;;;;10.19;100.00;99469.13;4900311;29;20033;-89
2022/11/05 09:20:17;;;;;;;6.95;4.05;;;;;;;10.21;100.00;99474.28;4900011;29;20188;-88
2022/11/05 09:22:43;;;;;;;10.35;4.05;;;;;;;10.26;100.00;99474.94;4898703;29;20112;-89
2022/11/05 09:25:09;;;;;;;5.90;3.70;;;;;;;10.32;100.00;99478.97;4898772;29;20028;-88
2022/11/05 09:27:34;;;;;;;5.00;3.10;;;;;;;10.33;100.00;99476.31;4898736;29;20028;-87
2022/11/05 09:30:00;;;;;;;4.93;2.92;;;;;;;10.40;100.00;99480.31;4882918;29;20032;-86
2022/11/05 09:32:25;;;;;;;5.55;3.50;;;;;;;10.34;100.00;99479.78;4898757;29;20020;-85
2022/11/05 09:34:50;;;;;;;5.95;3.55;;;;;;;10.33;100.00;99488.50;4898467;29;20075;-88
2022/11/05 09:37:16;;;;;;;3.40;2.90;;;;;;;10.35;100.00;99494.47;4898563;29;20593;-87
2022/11/05 09:39:41;;;;;;;5.40;3.10;;;;;;;10.32;100.00;99485.03;4898263;29;20024;-87
2022/11/05 09:42:08;;;;;;;8.05;3.60;;;;;;;10.42;100.00;99501.91;4898581;29;20021;-87
2022/11/05 09:44:48;;;;;;;6.45;3.33;;;;;;;10.49;100.00;99498.09;4898541;29;20024;-89
2022/11/05 09:47:23;;;;;;;6.00;2.97;;;;;;;10.57;100.00;99500.31;4898544;29;20157;-89
2022/11/05 09:49:52;;;;;;;7.03;3.03;;;;;;;10.68;100.00;99503.25;4898041;29;20020;-88
2022/11/05 09:52:22;;;;;;;9.60;4.20;;;;;;;10.78;100.00;99490.59;4898308;29;20501;-89
2022/11/05 09:54:49;;;;;;;7.53;3.53;;;;;;;10.86;100.00;99503.25;4898148;29;20028;-90
2022/11/05 09:57:36;;;;;;;6.00;3.58;;;;;;;10.83;100.00;99503.38;4898326;29;20040;-88
2022/11/05 10:00:05;;;;;;;7.97;3.55;;;;;;;10.84;100.00;99495.50;4898084;29;20413;-88
2022/11/05 10:02:47;;;;;;;6.43;3.63;;;;;;;10.81;100.00;99508.69;4894301;29;20032;-89
2022/11/05 10:05:13;;;;;;;7.60;3.75;;;;;;;10.75;100.00;99495.97;4897798;29;20080;-89
2022/11/05 10:08:06;;;;;;;7.40;3.83;;;;;;;10.79;100.00;99504.47;4897570;29;20060;-88
2022/11/05 10:10:46;;;;;;;5.95;3.30;;;;;;;10.81;100.00;99513.91;4897450;29;20079;-89
2022/11/05 10:13:32;;;;;;;5.88;3.38;;;;;;;10.83;100.00;99506.00;4898641;29;20038;-89
2022/11/05 10:16:03;;;;;;;8.75;3.60;;;;;;;10.83;100.00;99517.28;4897324;29;20027;-88
2022/11/05 10:18:35;;;;;;;5.03;3.78;;;;;;;10.83;100.00;99514.69;4897525;29;20472;-89
2022/11/05 10:21:01;;;;;;;7.93;3.83;;;;;;;10.82;100.00;99510.38;4897462;29;20052;-86
2022/11/05 10:23:27;;;;;;;5.75;4.10;;;;;;;10.87;100.00;99515.34;4898960;29;20504;-90
2022/11/05 10:26:00;;;;;;;6.97;4.03;;;;;;;10.92;100.00;99513.38;4897168;29;20071;-90
2022/11/05 10:28:30;;;;;;;5.47;3.55;;;;;;;10.98;100.00;99507.84;4897721;29;20028;-90
2022/11/05 10:31:03;;;;;;;6.63;3.50;;;;;;;10.97;100.00;99516.59;4897530;29;20381;-90
2022/11/05 10:33:41;;;;;;;8.35;4.00;;;;;;;11.06;100.00;99529.16;4897642;29;20024;-90
2022/11/05 10:36:11;;;;;;;7.05;4.10;;;;;;;11.05;100.00;99539.66;4897687;29;20031;-89
2022/11/05 10:38:37;;;;;;;10.10;6.47;;;;;;;11.10;100.00;99537.66;4899115;29;20035;-90
2022/11/05 10:41:23;;;;;;;10.70;6.32;;;;;;;11.15;100.00;99540.88;4897374;29;20032;-90
2022/11/05 10:43:52;;;;;;;21.73;12.57;;;;;;;11.16;100.00;99534.72;4896665;29;20021;-87
2022/11/05 10:46:31;;;;;;;18.38;10.98;;;;;;;11.23;100.00;99544.78;4897408;29;20029;-88
2022/11/05 10:49:17;;;;;;;10.90;6.35;;;;;;;11.14;100.00;99523.56;4897054;29;20017;-88
2022/11/05 10:51:43;;;;;;;8.48;5.13;;;;;;;11.24;100.00;99530.81;4897256;29;20467;-87
2022/11/05 10:54:21;;;;;;;8.13;4.30;;;;;;;11.28;100.00;99534.09;4897182;29;20047;-87
2022/11/05 10:56:47;;;;;;;8.13;4.47;;;;;;;11.29;100.00;99527.13;4898131;29;20036;-87
2022/11/05 10:59:25;;;;;;;6.47;4.53;;;;;;;11.31;100.00;99533.97;4896838;29;20021;-88
2022/11/05 11:01:56;;;;;;;7.35;4.72;;;;;;;11.31;100.00;99541.78;4896934;29;20472;-88
2022/11/05 11:04:24;;;;;;;10.82;5.28;;;;;;;11.21;100.00;99538.81;4897014;29;20020;-88
2022/11/05 11:06:53;;;;;;;10.27;4.78;;;;;;;11.13;100.00;99532.31;4896700;29;20112;-89
2022/11/05 11:09:30;;;;;;;8.43;4.65;;;;;;;11.15;100.00;99543.47;4896734;29;20025;-90
2022/11/05 11:12:01;;;;;;;10.20;5.00;;;;;;;11.17;100.00;99537.28;4896742;29;20028;-89
2022/11/05 11:14:27;;;;;;;6.72;4.65;;;;;;;11.24;100.00;99546.44;4896754;29;20021;-90
2022/11/05 11:16:56;;;;;;;10.27;4.88;;;;;;;11.28;100.00;99541.94;4876545;29;20064;-91
2022/11/05 11:19:33;;;;;;;9.35;4.55;;;;;;;11.30;100.00;99549.69;4861217;29;20389;-89
2022/11/05 11:22:04;;;;;;;12.13;3.88;;;;;;;11.29;100.00;99559.25;4876399;29;20402;-90
2022/11/05 11:24:37;;;;;;;9.38;4.10;;;;;;;11.25;100.00;99557.75;4839412;29;20030;-89
2022/11/05 11:27:11;;;;;;;14.40;4.70;;;;;;;11.24;100.00;99558.66;4824555;29;20042;-90
2022/11/05 11:29:40;;;;;;;8.18;4.50;;;;;;;11.27;100.00;99561.09;4839499;29;20034;-91
2022/11/05 11:32:15;;;;;;;8.32;4.20;;;;;;;11.30;100.00;99554.91;4824140;29;20037;-90
2022/11/05 11:34:43;;;;;;;7.90;4.25;;;;;;;11.34;100.00;99559.88;4839506;29;20022;-88
2022/11/05 11:37:17;;;;;;;9.80;4.82;;;;;;;11.39;100.00;99562.25;4838670;29;20050;-88
2022/11/05 11:39:48;;;;;;;10.95;5.03;;;;;;;11.46;100.00;99568.81;4839578;29;20042;-88
2022/11/05 11:42:20;;;;;;;10.27;5.20;;;;;;;11.51;100.00;99559.00;4839426;29;20125;-89
2022/11/05 11:44:47;;;;;;;7.63;4.60;;;;;;;11.53;100.00;99562.38;4824054;29;20537;-89
2022/11/05 11:47:16;;;;;;;10.10;5.00;;;;;;;11.56;100.00;99567.44;4846295;29;20517;-88
2022/11/05 11:49:41;;;;;;;10.52;4.90;;;;;;;11.59;100.00;99571.66;4857512;29;20530;-88
2022/11/05 11:52:12;;;;;;;11.13;4.10;;;;;;;11.56;100.00;99579.63;4857499;29;20045;-89
2022/11/05 11:54:38;;;;;;;9.15;4.35;;;;;;;11.46;100.00;99576.63;4842162;29;20391;-89
2022/11/05 11:57:28;;;;;;;10.85;4.72;;;;;;;11.49;100.00;99573.88;4842223;29;20128;-89
2022/11/05 11:59:58;;;;;;;9.63;4.80;;;;;;;11.49;100.00;99587.75;4842187;29;20037;-89
2022/11/05 12:02:51;;;;;;;10.70;4.55;;;;;;;11.53;100.00;99587.63;4867786;29;20470;-89
2022/11/05 12:06:01;;;;;;;11.02;4.10;;;;;;;11.58;100.00;99602.09;4895480;29;20095;-94
2022/11/05 12:09:04;;;;;;;13.27;4.47;;;;;;;11.55;100.00;99578.81;4838656;29;20034;-87
2022/11/05 12:11:42;;;;;;;9.40;4.43;;;;;;;11.59;100.00;99587.31;4839203;29;20042;-87
2022/11/05 12:14:38;;;;;;;8.75;3.80;;;;;;;11.59;100.00;99592.53;4823517;29;20037;-87
2022/11/05 12:17:10;;;;;;;8.73;4.03;;;;;;;11.54;99.89;99584.91;4784431;30;20039;-87
2022/11/05 12:20:06;;;;;;;10.23;4.55;;;;;;;11.53;100.00;99595.44;4769574;30;20055;-87
2022/11/05 12:22:46;;;;;;;11.05;4.38;;;;;;;11.55;100.00;99598.81;4784582;30;20488;-87
2022/11/05 12:25:31;;;;;;;11.90;5.10;;;;;;;11.53;100.00;99598.06;4784462;30;20035;-87